Time;durP1;ratioP1;P1;durP2;ratioP2;P2;SDS_P1;SDS_P2;PMS_P1;PMS_P2;Temp;Humidity;BMP_temperature;BMP_pressure;BME280_temperature;BME280_humidity;BME280_pressure;Samples;Min_cycle;Max_cycle;Signal;HPM_P1;HPM_P2
2022/03/05 00:00:40;;;;;;;11.30;4.70;;;6.00;85.80;;;;;;4951394;28;20047;-70
2022/03/05 00:03:06;;;;;;;8.20;3.42;;;6.00;85.80;;;;;;4946288;28;20054;-70
2022/03/05 00:05:32;;;;;;;7.53;3.28;;;5.90;85.80;;;;;;4952650;29;20057;-70
2022/03/05 00:07:58;;;;;;;6.05;4.13;;;5.90;86.00;;;;;;4948436;28;20164;-70
2022/03/05 00:10:24;;;;;;;7.63;3.90;;;5.90;86.40;;;;;;4951515;29;20472;-71
2022/03/05 00:12:51;;;;;;;8.90;4.50;;;5.80;86.60;;;;;;4948486;29;20428;-70
2022/03/05 00:15:17;;;;;;;10.32;4.22;;;5.90;86.50;;;;;;4957850;28;20040;-71
2022/03/05 00:17:44;;;;;;;8.50;4.68;;;5.80;86.10;;;;;;4957617;29;20624;-72
2022/03/05 00:20:11;;;;;;;10.65;4.43;;;5.80;86.00;;;;;;4957184;28;20479;-72
2022/03/05 00:22:37;;;;;;;10.52;5.13;;;5.80;85.80;;;;;;4957808;28;20051;-69
2022/03/05 00:25:06;;;;;;;11.52;5.10;;;5.70;85.70;;;;;;4952118;28;20027;-70
2022/03/05 00:27:31;;;;;;;9.48;4.95;;;5.70;85.30;;;;;;4938744;28;20039;-70
2022/03/05 00:29:57;;;;;;;9.32;4.75;;;5.70;85.40;;;;;;4956897;29;20030;-70
2022/03/05 00:32:23;;;;;;;8.65;4.63;;;5.60;85.40;;;;;;4944925;28;20032;-70
2022/03/05 00:34:49;;;;;;;12.65;5.63;;;5.70;85.40;;;;;;4944982;29;20039;-70
2022/03/05 00:37:15;;;;;;;11.13;5.38;;;5.60;85.30;;;;;;4948622;28;20038;-70
2022/03/05 00:39:41;;;;;;;11.15;5.55;;;5.60;85.30;;;;;;4955763;28;20039;-70
2022/03/05 00:42:07;;;;;;;8.38;4.93;;;5.60;85.30;;;;;;4955346;28;20074;-70
2022/03/05 00:44:32;;;;;;;14.77;5.90;;;5.60;85.40;;;;;;4957682;28;20040;-70
2022/03/05 00:46:59;;;;;;;9.57;4.60;;;5.50;85.40;;;;;;4956645;28;20035;-70
2022/03/05 00:49:25;;;;;;;8.23;4.75;;;5.50;85.50;;;;;;4957395;28;20034;-71
2022/03/05 00:51:54;;;;;;;9.38;4.15;;;5.50;85.60;;;;;;4944563;28;20032;-70
2022/03/05 00:54:20;;;;;;;11.13;4.78;;;5.50;85.40;;;;;;4955187;28;20490;-70
2022/03/05 00:56:46;;;;;;;6.63;3.67;;;5.40;85.30;;;;;;4948241;28;20413;-70
2022/03/05 00:59:12;;;;;;;10.38;3.67;;;5.50;85.40;;;;;;4954197;28;20123;-70
2022/03/05 01:01:39;;;;;;;9.80;4.53;;;5.40;85.50;;;;;;4956670;28;20054;-70
2022/03/05 01:04:05;;;;;;;7.95;4.25;;;5.40;85.50;;;;;;4957123;28;20382;-70
2022/03/05 01:06:39;;;;;;;8.50;4.38;;;5.40;85.50;;;;;;4957204;28;20040;-70
2022/03/05 01:09:05;;;;;;;7.13;3.85;;;5.40;85.60;;;;;;4956369;28;20081;-70
2022/03/05 01:11:32;;;;;;;9.20;4.53;;;5.40;85.60;;;;;;4957258;28;20039;-70
2022/03/05 01:13:58;;;;;;;8.25;4.07;;;5.40;85.80;;;;;;4955616;28;20031;-70
2022/03/05 01:16:23;;;;;;;5.32;3.20;;;5.40;86.50;;;;;;4953665;28;20047;-71
2022/03/05 01:18:49;;;;;;;2.88;2.03;;;5.40;87.10;;;;;;4941342;29;20038;-70
2022/03/05 01:21:15;;;;;;;7.43;3.10;;;5.40;87.60;;;;;;4952902;29;20054;-70
2022/03/05 01:23:41;;;;;;;9.65;4.57;;;5.40;87.80;;;;;;4946874;28;20040;-70
2022/03/05 01:26:07;;;;;;;7.63;4.03;;;5.30;87.80;;;;;;4946535;29;20046;-70
2022/03/05 01:28:33;;;;;;;12.32;4.90;;;5.30;87.60;;;;;;4934376;28;20042;-70
2022/03/05 01:30:59;;;;;;;8.90;4.30;;;5.30;88.00;;;;;;4947794;29;20053;-70
2022/03/05 01:33:25;;;;;;;7.22;3.90;;;5.30;88.20;;;;;;4953655;28;20037;-70
2022/03/05 01:35:50;;;;;;;10.00;4.60;;;5.30;88.20;;;;;;4940347;29;20032;-70
2022/03/05 01:38:17;;;;;;;4.18;2.65;;;5.30;88.30;;;;;;4953823;28;20599;-70
2022/03/05 01:40:43;;;;;;;15.38;4.97;;;5.20;88.50;;;;;;4953416;29;20047;-70
2022/03/05 01:43:10;;;;;;;9.95;4.10;;;5.30;88.60;;;;;;4953006;28;20028;-70
2022/03/05 01:45:36;;;;;;;5.35;3.45;;;5.20;88.70;;;;;;4940638;28;20056;-70
2022/03/05 01:48:05;;;;;;;8.30;4.30;;;5.20;88.90;;;;;;4953505;28;20077;-70
2022/03/05 01:50:31;;;;;;;10.63;3.30;;;5.20;89.00;;;;;;4949622;28;20020;-70
2022/03/05 01:52:58;;;;;;;4.65;2.67;;;5.20;89.30;;;;;;4935266;28;20040;-69
2022/03/05 01:55:24;;;;;;;7.95;3.83;;;5.20;89.80;;;;;;4949054;28;20040;-70
2022/03/05 01:57:51;;;;;;;8.20;4.35;;;5.20;90.00;;;;;;4945710;28;20035;-70
2022/03/05 02:00:17;;;;;;;10.52;3.72;;;5.10;90.10;;;;;;4951704;28;20086;-70
2022/03/05 02:02:45;;;;;;;9.20;3.60;;;5.20;90.20;;;;;;4953354;28;20035;-70
2022/03/05 02:05:11;;;;;;;5.75;3.22;;;5.10;90.10;;;;;;4938752;28;20066;-70
2022/03/05 02:07:37;;;;;;;6.88;3.03;;;5.10;90.10;;;;;;4949614;29;20035;-70
2022/03/05 02:10:05;;;;;;;7.63;3.50;;;5.20;90.20;;;;;;4953512;28;20046;-70
2022/03/05 02:12:33;;;;;;;8.07;4.20;;;5.10;90.10;;;;;;4952218;28;20431;-70
2022/03/05 02:14:59;;;;;;;5.93;3.58;;;5.10;90.10;;;;;;4952916;28;20378;-70
2022/03/05 02:17:27;;;;;;;9.00;4.25;;;5.10;90.10;;;;;;4952160;28;20110;-70
2022/03/05 02:19:56;;;;;;;6.57;3.75;;;5.10;90.10;;;;;;4946064;28;20498;-70
2022/03/05 02:22:24;;;;;;;3.20;2.05;;;5.20;90.10;;;;;;4946820;28;20486;-70
2022/03/05 02:25:02;;;;;;;8.48;3.90;;;5.10;90.20;;;;;;4941120;29;20478;-71
2022/03/05 02:27:32;;;;;;;7.65;3.97;;;5.20;90.30;;;;;;4948011;28;20043;-70
2022/03/05 02:29:57;;;;;;;6.05;3.53;;;5.10;90.20;;;;;;4943829;28;20122;-70
2022/03/05 02:32:24;;;;;;;6.18;3.42;;;5.10;90.30;;;;;;4952394;28;20110;-70
2022/03/05 02:34:52;;;;;;;8.32;4.28;;;5.10;90.40;;;;;;4937582;28;20028;-70
2022/03/05 02:37:20;;;;;;;7.63;3.78;;;5.20;90.40;;;;;;4943947;28;20490;-70
2022/03/05 02:39:46;;;;;;;6.93;2.72;;;5.10;90.40;;;;;;4951900;28;20113;-70
2022/03/05 02:42:15;;;;;;;9.38;3.00;;;5.10;90.50;;;;;;4946014;28;20042;-71
2022/03/05 02:44:41;;;;;;;6.93;3.85;;;5.10;90.60;;;;;;4952856;28;20456;-70
2022/03/05 02:47:06;;;;;;;6.18;2.92;;;5.10;90.50;;;;;;4952257;28;20254;-70
2022/03/05 02:49:35;;;;;;;3.95;2.20;;;5.10;90.70;;;;;;4940372;28;20035;-70
2022/03/05 02:52:01;;;;;;;6.43;3.10;;;5.10;90.70;;;;;;4942333;28;20067;-70
2022/03/05 02:54:27;;;;;;;3.65;2.13;;;5.10;90.80;;;;;;4946094;28;20128;-70
2022/03/05 02:56:53;;;;;;;9.35;4.05;;;5.00;90.70;;;;;;4945691;28;20116;-70
2022/03/05 02:59:19;;;;;;;5.55;3.05;;;5.00;90.80;;;;;;4939913;28;20066;-70
2022/03/05 03:01:46;;;;;;;11.85;4.40;;;5.00;90.70;;;;;;4951555;28;20475;-70
2022/03/05 03:04:12;;;;;;;7.95;3.85;;;5.00;90.50;;;;;;4952404;28;20391;-70
2022/03/05 03:06:37;;;;;;;7.10;3.72;;;5.00;90.30;;;;;;4947816;28;20035;-70
2022/03/05 03:09:03;;;;;;;10.68;3.22;;;5.00;90.20;;;;;;4952178;28;20456;-70
2022/03/05 03:11:29;;;;;;;8.43;3.95;;;5.00;90.10;;;;;;4952384;28;20386;-70
2022/03/05 03:13:54;;;;;;;6.57;3.97;;;5.00;90.00;;;;;;4950541;28;20518;-70
2022/03/05 03:16:20;;;;;;;7.80;3.47;;;5.00;89.80;;;;;;4984526;28;20021;-70
2022/03/05 03:18:45;;;;;;;5.80;3.42;;;5.00;89.80;;;;;;4947543;28;20482;-70
2022/03/05 03:21:12;;;;;;;10.32;3.95;;;5.00;89.60;;;;;;4938724;28;20044;-71
2022/03/05 03:23:41;;;;;;;7.55;3.88;;;5.00;89.10;;;;;;4948650;28;20440;-70
2022/03/05 03:26:06;;;;;;;8.32;4.32;;;5.00;88.80;;;;;;4951707;28;20126;-70
2022/03/05 03:28:32;;;;;;;6.70;3.20;;;5.00;88.80;;;;;;4951334;28;20107;-70
2022/03/05 03:30:58;;;;;;;5.00;2.75;;;5.00;88.70;;;;;;4952064;28;20913;-70
2022/03/05 03:33:24;;;;;;;6.97;3.45;;;5.00;88.60;;;;;;4951762;28;20099;-70
2022/03/05 03:35:50;;;;;;;5.28;2.65;;;5.00;88.60;;;;;;4951440;28;20057;-70
2022/03/05 03:38:15;;;;;;;6.45;3.42;;;5.00;88.70;;;;;;4951297;28;20470;-70
2022/03/05 03:40:41;;;;;;;8.30;3.72;;;5.00;88.80;;;;;;4941349;28;20066;-70
2022/03/05 03:43:07;;;;;;;8.88;4.38;;;4.90;88.50;;;;;;4949149;28;20043;-70
2022/03/05 03:45:35;;;;;;;7.40;3.80;;;5.00;88.60;;;;;;4952318;28;20070;-70
2022/03/05 03:48:02;;;;;;;7.43;3.60;;;5.00;88.40;;;;;;4951454;28;20474;-70
2022/03/05 03:50:28;;;;;;;7.43;3.33;;;4.90;88.40;;;;;;4940046;28;20043;-70
2022/03/05 03:52:54;;;;;;;7.18;3.25;;;4.90;88.00;;;;;;4950725;28;20374;-70
2022/03/05 03:55:21;;;;;;;6.10;3.30;;;4.90;88.00;;;;;;4951578;28;20059;-70
2022/03/05 03:57:47;;;;;;;6.32;3.47;;;4.90;87.80;;;;;;4944465;28;20032;-70
2022/03/05 04:00:15;;;;;;;6.32;3.22;;;4.90;87.80;;;;;;4932649;28;20042;-70
2022/03/05 04:02:43;;;;;;;6.20;3.42;;;4.90;87.70;;;;;;4951729;28;20509;-70
2022/03/05 04:05:10;;;;;;;7.13;3.40;;;4.90;87.50;;;;;;4949331;28;20035;-69
2022/03/05 04:10:22;;;;;;;6.03;3.42;;;4.80;87.00;;;;;;5000014;28;20402;-70
2022/03/05 04:12:48;;;;;;;5.18;2.95;;;4.80;87.00;;;;;;4951629;28;20041;-70
2022/03/05 04:15:14;;;;;;;10.13;3.45;;;4.80;87.00;;;;;;4951178;28;20031;-70
2022/03/05 04:17:40;;;;;;;7.63;3.53;;;4.80;87.00;;;;;;4950850;28;20467;-70
2022/03/05 04:20:07;;;;;;;5.97;3.47;;;4.80;87.00;;;;;;4951249;28;20062;-69
2022/03/05 04:22:33;;;;;;;7.78;3.33;;;4.80;87.10;;;;;;4951691;28;20043;-70
2022/03/05 04:25:00;;;;;;;11.68;3.75;;;4.80;87.80;;;;;;4950520;28;20066;-70
2022/03/05 04:27:25;;;;;;;7.68;3.28;;;4.80;87.20;;;;;;4951802;28;20032;-70
2022/03/05 04:29:51;;;;;;;7.30;3.40;;;4.80;87.10;;;;;;4939114;28;20504;-70
2022/03/05 04:32:16;;;;;;;7.68;4.07;;;4.80;86.90;;;;;;4950583;28;20043;-70
2022/03/05 04:34:43;;;;;;;7.32;3.70;;;4.80;86.60;;;;;;4951053;28;20027;-70
2022/03/05 04:37:08;;;;;;;7.03;3.70;;;4.70;86.10;;;;;;4951486;28;20043;-70
2022/03/05 04:39:34;;;;;;;8.77;3.28;;;4.70;86.00;;;;;;4950170;28;20035;-70
2022/03/05 04:42:00;;;;;;;6.50;3.72;;;4.70;85.80;;;;;;4951303;28;20534;-69
2022/03/05 04:44:26;;;;;;;7.47;3.78;;;4.70;85.60;;;;;;4950869;28;20088;-70
2022/03/05 04:46:52;;;;;;;6.32;3.35;;;4.70;85.60;;;;;;4950607;28;20505;-70
2022/03/05 04:49:17;;;;;;;8.15;3.97;;;4.60;85.40;;;;;;4951068;28;20439;-70
2022/03/05 04:51:43;;;;;;;8.95;4.10;;;4.60;85.30;;;;;;4954561;28;20524;-70
2022/03/05 04:54:09;;;;;;;10.50;4.18;;;4.60;85.30;;;;;;4953459;28;20023;-70
2022/03/05 04:56:34;;;;;;;8.93;4.03;;;4.60;85.30;;;;;;4954266;28;20081;-70
2022/03/05 04:59:06;;;;;;;9.32;3.78;;;4.60;85.30;;;;;;4954191;28;20098;-70
2022/03/05 05:01:32;;;;;;;7.57;4.15;;;4.50;85.20;;;;;;4954261;28;20050;-70
2022/03/05 05:03:59;;;;;;;7.55;3.55;;;4.50;85.30;;;;;;4952565;28;20043;-70
2022/03/05 05:06:24;;;;;;;9.38;3.90;;;4.50;85.40;;;;;;4953659;28;20793;-70
2022/03/05 05:08:51;;;;;;;10.73;3.90;;;4.50;85.50;;;;;;4941274;28;20028;-70
2022/03/05 05:11:16;;;;;;;8.80;4.32;;;4.50;85.60;;;;;;4954254;28;20023;-70
2022/03/05 05:13:42;;;;;;;6.65;4.10;;;4.50;85.70;;;;;;4950820;28;20474;-70
2022/03/05 05:16:08;;;;;;;9.38;4.53;;;4.50;85.70;;;;;;4943718;28;20039;-70
2022/03/05 05:18:34;;;;;;;7.22;4.28;;;4.40;85.70;;;;;;4941258;28;20050;-70
2022/03/05 05:21:00;;;;;;;9.27;4.45;;;4.50;85.90;;;;;;4953429;28;20039;-70
2022/03/05 05:23:27;;;;;;;9.00;4.47;;;4.50;85.90;;;;;;4953488;28;20045;-69
2022/03/05 05:25:53;;;;;;;8.23;3.85;;;4.40;85.90;;;;;;4954001;28;20035;-70
2022/03/05 05:28:18;;;;;;;10.95;4.30;;;4.40;86.00;;;;;;4937564;28;20031;-70
2022/03/05 05:30:44;;;;;;;8.45;3.90;;;4.40;86.00;;;;;;4944990;28;20062;-70
2022/03/05 05:33:10;;;;;;;10.00;3.97;;;4.40;86.00;;;;;;4953689;28;20110;-70
2022/03/05 05:35:35;;;;;;;10.32;4.20;;;4.40;85.90;;;;;;4973469;28;20064;-70
2022/03/05 05:38:01;;;;;;;10.18;4.47;;;4.40;85.90;;;;;;4975148;28;20083;-70
2022/03/05 05:40:27;;;;;;;8.13;4.00;;;4.40;86.00;;;;;;4963925;28;20494;-69
2022/03/05 05:42:53;;;;;;;12.65;4.60;;;4.40;85.90;;;;;;4963301;28;20058;-70
2022/03/05 05:45:19;;;;;;;9.65;4.40;;;4.40;85.80;;;;;;4961255;28;20031;-70
2022/03/05 05:47:45;;;;;;;10.25;3.60;;;4.40;85.90;;;;;;4963709;28;20028;-70
2022/03/05 05:50:11;;;;;;;9.38;4.13;;;4.30;86.00;;;;;;4974161;28;20386;-69
2022/03/05 05:52:38;;;;;;;9.15;4.35;;;4.30;86.00;;;;;;4964261;28;20032;-70
2022/03/05 05:55:03;;;;;;;8.55;4.53;;;4.30;86.00;;;;;;4963525;28;20070;-70
2022/03/05 05:57:29;;;;;;;9.02;4.13;;;4.30;85.90;;;;;;4963245;28;20031;-70
2022/03/05 05:59:55;;;;;;;8.30;4.60;;;4.30;85.90;;;;;;4952808;28;20478;-70
2022/03/05 06:02:21;;;;;;;11.80;4.90;;;4.30;85.90;;;;;;4963207;28;20086;-70
2022/03/05 06:04:47;;;;;;;7.45;3.80;;;4.30;86.00;;;;;;4951251;28;20149;-70
2022/03/05 06:07:13;;;;;;;8.93;4.38;;;4.30;85.90;;;;;;4952739;28;20498;-69
2022/03/05 06:09:38;;;;;;;7.30;4.13;;;4.30;86.10;;;;;;4962701;28;20023;-70
2022/03/05 06:12:04;;;;;;;9.93;4.55;;;4.30;86.20;;;;;;4974866;28;20048;-70
2022/03/05 06:14:30;;;;;;;9.55;4.53;;;4.30;86.30;;;;;;4963733;28;20116;-70
2022/03/05 06:16:56;;;;;;;11.38;4.85;;;4.30;86.20;;;;;;4973390;28;20069;-69
2022/03/05 06:19:21;;;;;;;9.27;4.32;;;4.30;86.10;;;;;;4974614;28;20475;-70
2022/03/05 06:21:47;;;;;;;9.10;4.93;;;4.30;86.00;;;;;;4962438;28;20062;-69
2022/03/05 06:24:13;;;;;;;7.95;4.53;;;4.20;85.90;;;;;;4974112;28;20026;-70
2022/03/05 06:26:38;;;;;;;8.73;4.20;;;4.20;86.50;;;;;;4963599;28;20489;-70
2022/03/05 06:29:04;;;;;;;8.88;4.50;;;4.20;85.90;;;;;;4952103;28;20423;-70
2022/03/05 06:31:33;;;;;;;11.52;4.68;;;4.20;85.90;;;;;;4984544;28;20032;-71
2022/03/05 06:33:58;;;;;;;7.45;4.07;;;4.20;85.90;;;;;;4963062;28;20082;-70
2022/03/05 06:36:24;;;;;;;9.20;4.30;;;4.20;86.00;;;;;;4963118;28;20033;-70
2022/03/05 06:38:51;;;;;;;10.65;4.70;;;4.20;86.10;;;;;;4973412;28;20023;-70
2022/03/05 06:41:17;;;;;;;7.50;3.22;;;4.10;86.20;;;;;;4952505;28;20073;-70
2022/03/05 06:43:42;;;;;;;9.82;4.50;;;4.10;86.60;;;;;;4952616;28;20092;-69
2022/03/05 06:46:08;;;;;;;9.95;3.90;;;4.20;87.00;;;;;;4951954;28;20066;-69
2022/03/05 06:48:36;;;;;;;7.82;4.22;;;4.20;87.10;;;;;;4952591;29;20019;-70
2022/03/05 06:51:02;;;;;;;10.95;4.57;;;4.10;87.00;;;;;;4940678;28;20019;-71
2022/03/05 06:53:28;;;;;;;6.97;4.00;;;4.20;87.10;;;;;;4958675;28;20119;-71
2022/03/05 06:55:54;;;;;;;9.45;4.63;;;4.20;87.00;;;;;;4956072;28;20130;-69
2022/03/05 06:58:19;;;;;;;10.48;5.38;;;4.20;86.80;;;;;;4957123;28;20094;-70
2022/03/05 07:00:45;;;;;;;8.75;3.97;;;4.20;86.80;;;;;;4962011;28;20059;-71
2022/03/05 07:03:10;;;;;;;7.07;3.83;;;4.20;86.80;;;;;;4973164;28;20478;-71
2022/03/05 07:05:36;;;;;;;5.07;2.88;;;4.20;87.20;;;;;;4950168;28;20035;-71
2022/03/05 07:08:08;;;;;;;11.18;4.35;;;4.20;87.30;;;;;;4982722;28;20031;-72
2022/03/05 07:10:34;;;;;;;10.15;4.47;;;4.20;87.50;;;;;;4957865;28;20788;-69
2022/03/05 07:12:59;;;;;;;10.20;4.43;;;4.20;87.60;;;;;;4960401;28;20027;-69
2022/03/05 07:15:31;;;;;;;5.22;2.83;;;4.20;87.40;;;;;;4972030;28;20135;-69
2022/03/05 07:17:57;;;;;;;7.32;4.03;;;4.30;87.70;;;;;;4951372;28;20042;-69
2022/03/05 07:20:22;;;;;;;12.52;5.78;;;4.20;88.00;;;;;;4961967;28;20019;-70
2022/03/05 07:22:54;;;;;;;13.07;6.00;;;4.20;87.90;;;;;;4951159;28;20114;-70
2022/03/05 07:25:19;;;;;;;12.05;6.50;;;4.30;88.00;;;;;;4956527;28;20474;-71
2022/03/05 07:27:45;;;;;;;11.63;5.70;;;4.30;87.90;;;;;;4956797;28;20046;-70
2022/03/05 07:30:11;;;;;;;12.55;5.72;;;4.30;87.80;;;;;;4948149;28;20035;-70
2022/03/05 07:32:37;;;;;;;11.95;6.13;;;4.30;87.80;;;;;;4965309;28;20039;-70
2022/03/05 07:35:04;;;;;;;12.10;6.35;;;4.30;87.80;;;;;;4981624;28;20059;-71
2022/03/05 07:37:30;;;;;;;9.52;5.20;;;4.30;87.90;;;;;;4956736;28;20035;-70
2022/03/05 07:39:56;;;;;;;15.20;6.68;;;4.30;87.90;;;;;;4959210;28;20073;-71
2022/03/05 07:42:21;;;;;;;12.02;5.45;;;4.40;88.10;;;;;;4963295;28;20032;-70
2022/03/05 07:44:50;;;;;;;13.55;5.95;;;4.40;88.10;;;;;;4956686;28;20023;-71
2022/03/05 07:47:15;;;;;;;10.25;5.50;;;4.40;88.20;;;;;;4950005;28;20024;-72
2022/03/05 07:49:41;;;;;;;11.70;4.43;;;4.40;88.20;;;;;;4950195;28;20382;-73
2022/03/05 07:52:07;;;;;;;9.63;4.85;;;4.50;88.50;;;;;;4949517;28;20085;-70
2022/03/05 07:54:32;;;;;;;6.28;2.83;;;4.40;88.40;;;;;;4949956;28;20039;-71
2022/03/05 07:57:00;;;;;;;12.38;3.80;;;4.50;88.70;;;;;;4949285;28;20050;-71
2022/03/05 07:59:26;;;;;;;12.15;5.15;;;4.50;89.00;;;;;;4949343;28;20036;-71
2022/03/05 08:01:52;;;;;;;12.63;5.18;;;4.50;89.20;;;;;;4952575;28;20064;-71
2022/03/05 08:04:17;;;;;;;14.55;5.38;;;4.60;89.40;;;;;;4956897;28;20045;-71
2022/03/05 08:06:43;;;;;;;8.80;4.10;;;4.60;89.30;;;;;;4962708;28;20039;-71
2022/03/05 08:09:08;;;;;;;2.03;1.80;;;4.60;89.40;;;;;;4947829;28;20035;-71
2022/03/05 08:11:35;;;;;;;9.63;4.88;;;4.60;89.90;;;;;;4951134;28;20082;-71
2022/03/05 08:14:00;;;;;;;10.88;4.93;;;4.60;90.00;;;;;;4949399;28;20038;-72
2022/03/05 08:16:27;;;;;;;2.63;1.98;;;4.70;90.00;;;;;;4949292;28;20043;-71
2022/03/05 08:18:52;;;;;;;7.93;3.97;;;4.70;90.10;;;;;;4949012;28;20438;-71
2022/03/05 08:21:18;;;;;;;13.65;7.00;;;4.70;90.30;;;;;;4948515;28;20093;-71
2022/03/05 08:23:44;;;;;;;16.23;5.88;;;4.80;90.30;;;;;;4956149;28;20023;-71
2022/03/05 08:26:13;;;;;;;12.60;6.00;;;4.80;90.30;;;;;;4964317;28;20033;-70
2022/03/05 08:28:41;;;;;;;7.05;2.88;;;4.80;90.20;;;;;;4969711;28;20051;-69
2022/03/05 08:31:06;;;;;;;8.85;4.53;;;4.90;90.30;;;;;;4965588;28;20035;-70
2022/03/05 08:33:32;;;;;;;12.82;5.85;;;4.90;90.50;;;;;;4952091;28;20363;-75
2022/03/05 08:35:58;;;;;;;9.98;5.78;;;4.90;90.40;;;;;;4954276;28;20441;-74
2022/03/05 08:38:23;;;;;;;10.77;4.85;;;4.90;90.30;;;;;;4951023;28;20050;-75
2022/03/05 08:40:49;;;;;;;6.03;3.00;;;5.00;90.30;;;;;;4959421;28;20031;-71
2022/03/05 08:43:15;;;;;;;9.60;5.05;;;5.00;90.50;;;;;;4951393;28;20051;-71
2022/03/05 08:45:40;;;;;;;4.70;3.05;;;5.00;90.50;;;;;;4963598;28;20017;-72
2022/03/05 08:48:06;;;;;;;7.07;3.72;;;5.00;90.60;;;;;;4950227;28;20455;-72
2022/03/05 08:50:35;;;;;;;9.13;3.63;;;5.00;90.60;;;;;;4955498;28;20027;-74
2022/03/05 08:53:01;;;;;;;8.90;4.65;;;5.10;90.60;;;;;;4949664;28;20034;-69
2022/03/05 08:55:27;;;;;;;4.95;3.20;;;5.10;90.70;;;;;;4960020;28;20052;-71
2022/03/05 08:57:52;;;;;;;14.60;6.35;;;5.10;90.80;;;;;;4952123;28;20395;-71
2022/03/05 09:00:18;;;;;;;10.73;4.30;;;5.10;90.80;;;;;;4961212;28;20023;-71
2022/03/05 09:02:44;;;;;;;3.47;2.50;;;5.10;90.80;;;;;;4952055;28;20043;-70
2022/03/05 09:05:11;;;;;;;8.10;3.88;;;5.20;90.80;;;;;;4955245;28;20035;-70
2022/03/05 09:07:36;;;;;;;11.07;5.18;;;5.20;90.90;;;;;;4963544;28;20026;-70
2022/03/05 09:10:03;;;;;;;10.05;4.75;;;5.20;90.90;;;;;;4964594;28;20690;-70
2022/03/05 09:12:28;;;;;;;13.25;5.63;;;5.30;90.90;;;;;;4967713;28;20031;-70
2022/03/05 09:14:54;;;;;;;4.88;2.70;;;5.30;90.90;;;;;;4964294;28;20027;-71
2022/03/05 09:17:20;;;;;;;8.57;4.38;;;5.30;91.00;;;;;;4951347;28;20124;-70
2022/03/05 09:19:45;;;;;;;9.02;3.70;;;5.30;91.10;;;;;;4951027;28;20046;-72
2022/03/05 09:22:11;;;;;;;7.90;3.17;;;5.30;91.10;;;;;;4951965;28;20035;-70
2022/03/05 09:24:37;;;;;;;4.55;2.50;;;5.30;91.10;;;;;;4951859;28;20028;-71
2022/03/05 09:27:04;;;;;;;7.57;3.67;;;5.40;91.20;;;;;;4951568;28;20066;-69
2022/03/05 09:29:30;;;;;;;6.32;2.92;;;5.40;91.30;;;;;;4953052;28;20070;-70
2022/03/05 09:31:56;;;;;;;8.27;4.05;;;5.40;91.30;;;;;;4975193;28;20467;-70
2022/03/05 09:34:21;;;;;;;1.58;1.02;;;5.40;91.40;;;;;;4954334;28;20077;-70
2022/03/05 09:36:47;;;;;;;6.25;1.75;;;5.40;91.40;;;;;;4963340;28;20444;-70
2022/03/05 09:39:13;;;;;;;7.10;3.70;;;5.40;91.40;;;;;;4974948;28;20075;-70
2022/03/05 09:41:39;;;;;;;4.55;3.35;;;5.50;91.40;;;;;;4960827;28;20085;-71
2022/03/05 09:44:06;;;;;;;11.73;4.65;;;5.50;91.50;;;;;;4975169;28;20042;-70
2022/03/05 09:46:34;;;;;;;7.78;3.92;;;5.50;91.50;;;;;;4986397;28;20056;-70
2022/03/05 09:49:01;;;;;;;8.18;4.35;;;5.60;91.40;;;;;;4959764;28;20070;-71
2022/03/05 09:51:27;;;;;;;4.78;2.38;;;5.70;91.50;;;;;;4967569;28;20042;-70
2022/03/05 09:53:54;;;;;;;1.88;1.42;;;5.70;91.40;;;;;;4956261;28;20034;-70
2022/03/05 09:56:22;;;;;;;6.45;3.70;;;5.80;91.50;;;;;;4948335;28;20051;-70
2022/03/05 09:58:49;;;;;;;2.47;1.80;;;5.80;91.50;;;;;;4964983;28;20066;-70
2022/03/05 10:01:16;;;;;;;7.20;4.18;;;5.90;91.60;;;;;;4950420;28;20047;-70
2022/03/05 10:03:57;;;;;;;4.70;2.95;;;5.80;91.40;;;;;;4961407;28;20390;-70
2022/03/05 10:06:27;;;;;;;7.70;4.15;;;5.80;91.60;;;;;;4966190;28;20027;-70
2022/03/05 10:08:55;;;;;;;10.43;4.97;;;5.80;91.60;;;;;;4963902;28;20045;-70
2022/03/05 10:11:21;;;;;;;8.10;4.15;;;5.80;91.60;;;;;;4970235;28;20035;-70
2022/03/05 10:13:48;;;;;;;8.82;4.85;;;5.90;91.50;;;;;;4961588;28;20104;-70
2022/03/05 10:16:28;;;;;;;3.88;1.50;;;5.90;91.50;;;;;;4973008;28;20034;-70
2022/03/05 10:18:58;;;;;;;3.90;2.45;;;5.90;91.60;;;;;;4970866;28;20085;-70
2022/03/05 10:21:31;;;;;;;7.80;4.20;;;6.00;91.70;;;;;;4954859;28;20119;-69
2022/03/05 10:24:08;;;;;;;1.80;1.50;;;6.00;91.80;;;;;;4950061;28;20085;-73
2022/03/05 10:26:53;;;;;;;5.60;3.40;;;6.00;91.90;;;;;;4984079;28;20041;-70
2022/03/05 10:29:24;;;;;;;4.03;2.63;;;6.10;91.90;;;;;;4959351;28;20061;-69
2022/03/05 10:32:08;;;;;;;7.38;3.97;;;6.10;92.00;;;;;;4972593;28;20027;-68
2022/03/05 10:34:50;;;;;;;10.02;3.92;;;6.00;92.10;;;;;;4959284;28;20082;-70
2022/03/05 10:37:16;;;;;;;8.20;3.80;;;6.10;92.20;;;;;;4948921;28;20516;-69
2022/03/05 10:39:42;;;;;;;10.65;4.60;;;6.10;92.30;;;;;;4948056;29;20421;-68
2022/03/05 10:42:23;;;;;;;4.53;2.80;;;6.10;92.30;;;;;;4981385;28;20091;-69
2022/03/05 10:45:11;;;;;;;6.20;3.55;;;6.10;92.40;;;;;;4974599;28;20031;-68
2022/03/05 10:47:38;;;;;;;7.55;4.22;;;6.10;92.50;;;;;;4960685;28;20437;-72
2022/03/05 10:50:28;;;;;;;8.20;3.67;;;6.20;92.40;;;;;;4951147;28;20031;-69
2022/03/05 10:52:58;;;;;;;6.50;3.47;;;6.20;92.50;;;;;;4949134;28;20169;-68
2022/03/05 10:55:26;;;;;;;8.95;3.08;;;6.20;92.50;;;;;;4961474;28;20054;-68
2022/03/05 10:58:14;;;;;;;5.50;2.75;;;6.20;92.60;;;;;;4949581;28;20388;-68
2022/03/05 11:00:45;;;;;;;4.15;2.88;;;6.30;92.50;;;;;;4939924;28;20047;-72
2022/03/05 11:03:11;;;;;;;7.05;4.55;;;6.30;92.60;;;;;;4946642;28;20042;-68
2022/03/05 11:05:38;;;;;;;5.30;2.42;;;6.40;92.60;;;;;;4949372;28;20035;-68
2022/03/05 11:08:05;;;;;;;10.07;5.32;;;6.40;92.70;;;;;;4951682;28;20043;-67
2022/03/05 11:10:31;;;;;;;7.65;3.78;;;6.40;92.60;;;;;;4951180;28;20032;-67
2022/03/05 11:13:02;;;;;;;6.82;3.25;;;6.40;92.50;;;;;;4951030;28;20113;-67
2022/03/05 11:15:29;;;;;;;7.72;3.97;;;6.50;92.70;;;;;;4949730;28;20027;-68
2022/03/05 11:17:58;;;;;;;6.68;3.90;;;6.60;92.70;;;;;;4940647;28;20482;-68
2022/03/05 11:20:24;;;;;;;6.72;3.22;;;6.60;92.60;;;;;;4948428;28;20038;-68
2022/03/05 11:22:53;;;;;;;3.75;2.58;;;6.60;92.70;;;;;;4932080;29;20048;-68
2022/03/05 11:25:21;;;;;;;6.75;3.83;;;6.60;92.70;;;;;;4948731;29;20031;-68
2022/03/05 11:27:57;;;;;;;5.13;3.45;;;6.60;92.80;;;;;;4960881;28;20467;-68
2022/03/05 11:30:24;;;;;;;5.05;2.53;;;6.70;92.80;;;;;;4935917;28;20074;-68
2022/03/05 11:32:50;;;;;;;7.55;4.28;;;6.70;92.80;;;;;;4946707;28;20031;-68
2022/03/05 11:35:22;;;;;;;11.55;4.75;;;6.70;92.60;;;;;;4949782;28;20122;-68
2022/03/05 11:37:50;;;;;;;8.52;3.75;;;6.80;92.80;;;;;;4947864;28;20046;-69
2022/03/05 11:40:35;;;;;;;7.68;3.40;;;6.80;92.70;;;;;;4943533;29;20038;-69
2022/03/05 11:43:28;;;;;;;7.65;4.03;;;6.80;92.70;;;;;;4938679;29;20035;-69
2022/03/05 11:45:59;;;;;;;14.85;3.53;;;6.90;92.70;;;;;;4950684;28;20122;-68
2022/03/05 11:48:27;;;;;;;6.15;3.63;;;7.00;92.70;;;;;;4978063;28;20028;-70
2022/03/05 11:50:55;;;;;;;7.07;4.10;;;6.90;92.50;;;;;;4955357;28;20034;-69
2022/03/05 11:53:20;;;;;;;10.63;5.63;;;6.90;92.50;;;;;;4961334;28;20036;-70
2022/03/05 11:55:47;;;;;;;5.43;3.35;;;7.00;92.20;;;;;;4956275;28;20037;-69
2022/03/05 11:58:13;;;;;;;8.48;4.07;;;7.00;92.30;;;;;;4964470;28;20503;-69
2022/03/05 12:00:41;;;;;;;12.88;4.50;;;7.00;92.40;;;;;;4967112;28;20027;-69
2022/03/05 12:03:07;;;;;;;8.85;4.28;;;7.10;92.40;;;;;;4947676;28;20479;-69
2022/03/05 12:05:33;;;;;;;6.72;3.60;;;7.20;92.50;;;;;;4973343;28;20031;-67
2022/03/05 12:08:01;;;;;;;4.75;2.38;;;7.20;92.60;;;;;;4965100;28;20112;-68
2022/03/05 12:10:26;;;;;;;9.73;5.18;;;7.20;92.70;;;;;;4947237;28;20039;-67
2022/03/05 12:12:54;;;;;;;7.32;3.75;;;7.30;92.50;;;;;;4947493;28;20035;-67
2022/03/05 12:15:33;;;;;;;4.82;2.97;;;7.30;92.50;;;;;;4954528;28;20043;-67
2022/03/05 12:18:01;;;;;;;7.28;3.90;;;7.30;92.60;;;;;;4953471;28;20031;-67
2022/03/05 12:20:31;;;;;;;7.80;4.07;;;7.40;92.70;;;;;;4947765;28;20513;-67
2022/03/05 12:23:04;;;;;;;12.77;5.80;;;7.40;92.60;;;;;;4945711;29;20051;-67
2022/03/05 12:25:32;;;;;;;11.48;4.43;;;7.50;92.40;;;;;;4957940;28;20483;-68
2022/03/05 12:27:59;;;;;;;7.80;3.92;;;7.50;92.40;;;;;;4954197;28;20044;-68
2022/03/05 12:30:37;;;;;;;6.20;3.40;;;7.60;92.30;;;;;;4953653;28;20107;-68
2022/03/05 12:33:10;;;;;;;9.60;4.70;;;7.60;92.50;;;;;;4947649;28;20042;-67
2022/03/05 12:35:36;;;;;;;8.18;3.33;;;7.70;92.40;;;;;;4949387;28;20089;-67
2022/03/05 12:38:03;;;;;;;10.05;3.28;;;7.70;92.40;;;;;;4959984;28;20058;-68
2022/03/05 12:40:33;;;;;;;14.45;6.07;;;7.70;92.50;;;;;;4971891;28;20038;-68
2022/03/05 12:43:02;;;;;;;10.20;5.35;;;7.70;92.30;;;;;;4949320;28;20047;-68
2022/03/05 12:45:33;;;;;;;7.70;4.00;;;7.80;92.30;;;;;;4968890;28;20041;-70
2022/03/05 12:48:00;;;;;;;4.78;3.25;;;7.90;92.50;;;;;;4956281;28;20037;-69
2022/03/05 12:50:33;;;;;;;8.73;4.97;;;7.80;92.50;;;;;;4977837;28;20039;-69
2022/03/05 12:53:00;;;;;;;4.07;2.30;;;7.80;92.20;;;;;;4948253;28;20042;-67
2022/03/05 12:55:35;;;;;;;8.35;2.60;;;7.90;92.50;;;;;;4960040;28;20062;-67
2022/03/05 12:58:16;;;;;;;4.60;2.42;;;7.90;92.60;;;;;;4949144;28;20027;-68